sensor_id;sensor_type;location;lat;lon;timestamp;pressure;altitude;pressure_sealevel;temperature;humidity
51359;BME280;37448;51.588;7.248;2024-01-06T00:01:03;99550.25;;;6.09;100.00
51359;BME280;37448;51.588;7.248;2024-01-06T00:03:03;99552.78;;;6.10;100.00
51359;BME280;37448;51.588;7.248;2024-01-06T00:05:05;99549.38;;;6.08;100.00
51359;BME280;37448;51.588;7.248;2024-01-06T00:07:05;99564.03;;;6.11;100.00
51359;BME280;37448;51.588;7.248;2024-01-06T00:09:05;99557.97;;;6.10;100.00
51359;BME280;37448;51.588;7.248;2024-01-06T00:11:06;99563.19;;;6.07;100.00
51359;BME280;37448;51.588;7.248;2024-01-06T00:13:06;99559.72;;;6.08;100.00
51359;BME280;37448;51.588;7.248;2024-01-06T00:15:07;99564.06;;;6.08;100.00
51359;BME280;37448;51.588;7.248;2024-01-06T00:17:07;99556.31;;;6.06;100.00
51359;BME280;37448;51.588;7.248;2024-01-06T00:19:08;99560.56;;;6.10;100.00
51359;BME280;37448;51.588;7.248;2024-01-06T00:21:08;99570.03;;;6.11;100.00
51359;BME280;37448;51.588;7.248;2024-01-06T00:23:08;99569.16;;;6.14;100.00
51359;BME280;37448;51.588;7.248;2024-01-06T00:25:09;99573.44;;;6.13;100.00
51359;BME280;37448;51.588;7.248;2024-01-06T00:27:09;99570.09;;;6.08;100.00
51359;BME280;37448;51.588;7.248;2024-01-06T00:29:10;99571.75;;;6.12;100.00
51359;BME280;37448;51.588;7.248;2024-01-06T00:31:10;99574.31;;;6.12;100.00
51359;BME280;37448;51.588;7.248;2024-01-06T00:33:12;99573.44;;;6.13;100.00
51359;BME280;37448;51.588;7.248;2024-01-06T00:35:12;99577.78;;;6.13;100.00
51359;BME280;37448;51.588;7.248;2024-01-06T00:37:13;99586.38;;;6.15;100.00
51359;BME280;37448;51.588;7.248;2024-01-06T00:39:13;99580.34;;;6.14;100.00
51359;BME280;37448;51.588;7.248;2024-01-06T00:41:13;99583.78;;;6.15;100.00
51359;BME280;37448;51.588;7.248;2024-01-06T00:43:14;99581.22;;;6.13;100.00
51359;BME280;37448;51.588;7.248;2024-01-06T00:45:14;99587.25;;;6.14;100.00
51359;BME280;37448;51.588;7.248;2024-01-06T00:47:15;99599.28;;;6.16;100.00
51359;BME280;37448;51.588;7.248;2024-01-06T00:49:15;99595.03;;;6.12;100.00
51359;BME280;37448;51.588;7.248;2024-01-06T00:51:16;99599.38;;;6.12;100.00
51359;BME280;37448;51.588;7.248;2024-01-06T00:53:16;99599.34;;;6.13;100.00
51359;BME280;37448;51.588;7.248;2024-01-06T00:55:17;99601.03;;;6.14;100.00
51359;BME280;37448;51.588;7.248;2024-01-06T00:57:17;99606.22;;;6.14;100.00
51359;BME280;37448;51.588;7.248;2024-01-06T00:59:17;99606.22;;;6.14;100.00
51359;BME280;37448;51.588;7.248;2024-01-06T01:01:18;99611.44;;;6.13;100.00
51359;BME280;37448;51.588;7.248;2024-01-06T01:03:18;99609.69;;;6.13;100.00
51359;BME280;37448;51.588;7.248;2024-01-06T01:05:19;99607.09;;;6.13;100.00
51359;BME280;37448;51.588;7.248;2024-01-06T01:07:19;99605.38;;;6.12;100.00
51359;BME280;37448;51.588;7.248;2024-01-06T01:09:20;99606.28;;;6.11;100.00
51359;BME280;37448;51.588;7.248;2024-01-06T01:11:20;99606.31;;;6.10;100.00
51359;BME280;37448;51.588;7.248;2024-01-06T01:13:20;99603.69;;;6.11;100.00
51359;BME280;37448;51.588;7.248;2024-01-06T01:15:21;99606.22;;;6.14;100.00
51359;BME280;37448;51.588;7.248;2024-01-06T01:17:21;99601.91;;;6.15;100.00
51359;BME280;37448;51.588;7.248;2024-01-06T01:19:22;99604.50;;;6.13;100.00
51359;BME280;37448;51.588;7.248;2024-01-06T01:21:22;99603.63;;;6.14;100.00
51359;BME280;37448;51.588;7.248;2024-01-06T01:23:22;99607.19;;;6.07;100.00
51359;BME280;37448;51.588;7.248;2024-01-06T01:25:23;99612.31;;;6.10;100.00
51359;BME280;37448;51.588;7.248;2024-01-06T01:27:23;99614.06;;;6.10;100.00
51359;BME280;37448;51.588;7.248;2024-01-06T01:29:23;99609.75;;;6.10;100.00
51359;BME280;37448;51.588;7.248;2024-01-06T01:31:24;99618.38;;;6.11;100.00
51359;BME280;37448;51.588;7.248;2024-01-06T01:33:25;99620.09;;;6.10;100.00
51359;BME280;37448;51.588;7.248;2024-01-06T01:35:25;99614.91;;;6.10;100.00
51359;BME280;37448;51.588;7.248;2024-01-06T01:37:25;99617.50;;;6.10;100.00
51359;BME280;37448;51.588;7.248;2024-01-06T01:39:26;99620.09;;;6.10;100.00
51359;BME280;37448;51.588;7.248;2024-01-06T01:41:26;99629.56;;;6.11;100.00
51359;BME280;37448;51.588;7.248;2024-01-06T01:43:26;99624.44;;;6.10;100.00
51359;BME280;37448;51.588;7.248;2024-01-06T01:45:29;99628.72;;;6.09;100.00
51359;BME280;37448;51.588;7.248;2024-01-06T01:47:29;99632.16;;;6.11;100.00
51359;BME280;37448;51.588;7.248;2024-01-06T01:49:30;99635.66;;;6.07;100.00
51359;BME280;37448;51.588;7.248;2024-01-06T01:51:32;99644.25;;;6.09;100.00
51359;BME280;37448;51.588;7.248;2024-01-06T01:53:36;99641.66;;;6.09;100.00
51359;BME280;37448;51.588;7.248;2024-01-06T01:55:36;99644.31;;;6.06;100.00
51359;BME280;37448;51.588;7.248;2024-01-06T01:57:37;99646.03;;;6.07;100.00
51359;BME280;37448;51.588;7.248;2024-01-06T01:59:38;99648.63;;;6.06;100.00
51359;BME280;37448;51.588;7.248;2024-01-06T02:01:41;99643.44;;;6.06;100.00
51359;BME280;37448;51.588;7.248;2024-01-06T02:03:42;99648.63;;;6.06;100.00
51359;BME280;37448;51.588;7.248;2024-01-06T02:05:43;99644.31;;;6.06;100.00
51359;BME280;37448;51.588;7.248;2024-01-06T02:07:44;99649.50;;;6.06;100.00
51359;BME280;37448;51.588;7.248;2024-01-06T02:09:45;99647.78;;;6.05;100.00
51359;BME280;37448;51.588;7.248;2024-01-06T02:11:45;99657.25;;;6.08;100.00
51359;BME280;37448;51.588;7.248;2024-01-06T02:13:46;99650.47;;;5.99;100.00
51359;BME280;37448;51.588;7.248;2024-01-06T02:15:47;99660.72;;;6.03;100.00
51359;BME280;37448;51.588;7.248;2024-01-06T02:17:48;99658.13;;;6.05;100.00
51359;BME280;37448;51.588;7.248;2024-01-06T02:19:48;99660.72;;;6.07;100.00
51359;BME280;37448;51.588;7.248;2024-01-06T02:21:52;99664.13;;;6.07;100.00
51359;BME280;37448;51.588;7.248;2024-01-06T02:23:52;99668.44;;;6.08;100.00
51359;BME280;37448;51.588;7.248;2024-01-06T02:25:53;99665.91;;;6.03;100.00
51359;BME280;37448;51.588;7.248;2024-01-06T02:27:53;99671.94;;;6.04;100.00
51359;BME280;37448;51.588;7.248;2024-01-06T02:29:53;99670.19;;;6.06;100.00
51359;BME280;37448;51.588;7.248;2024-01-06T02:31:54;99688.44;;;5.95;100.00
51359;BME280;37448;51.588;7.248;2024-01-06T02:33:54;99687.63;;;5.92;100.00
51359;BME280;37448;51.588;7.248;2024-01-06T02:35:54;99695.44;;;5.90;100.00
51359;BME280;37448;51.588;7.248;2024-01-06T02:37:55;99698.09;;;5.82;100.00
51359;BME280;37448;51.588;7.248;2024-01-06T02:39:55;99692.16;;;5.76;100.00
51359;BME280;37448;51.588;7.248;2024-01-06T02:41:55;99694.69;;;5.79;100.00
51359;BME280;37448;51.588;7.248;2024-01-06T02:43:56;99701.72;;;5.69;100.00
51359;BME280;37448;51.588;7.248;2024-01-06T02:45:56;99700.88;;;5.67;100.00
51359;BME280;37448;51.588;7.248;2024-01-06T02:47:57;99705.16;;;5.68;100.00
51359;BME280;37448;51.588;7.248;2024-01-06T02:49:57;99703.47;;;5.67;100.00
51359;BME280;37448;51.588;7.248;2024-01-06T02:51:57;99706.91;;;5.67;100.00
51359;BME280;37448;51.588;7.248;2024-01-06T02:53:58;99708.72;;;5.60;100.00
51359;BME280;37448;51.588;7.248;2024-01-06T02:55:58;99718.25;;;5.55;100.00
51359;BME280;37448;51.588;7.248;2024-01-06T02:57:58;99717.47;;;5.50;100.00
51359;BME280;37448;51.588;7.248;2024-01-06T02:59:59;99722.59;;;5.53;100.00
51359;BME280;37448;51.588;7.248;2024-01-06T03:01:59;99724.34;;;5.51;100.00
51359;BME280;37448;51.588;7.248;2024-01-06T03:04:00;99721.72;;;5.54;100.00
51359;BME280;37448;51.588;7.248;2024-01-06T03:06:00;99727.69;;;5.58;100.00
51359;BME280;37448;51.588;7.248;2024-01-06T03:08:01;99729.47;;;5.54;100.00
51359;BME280;37448;51.588;7.248;2024-01-06T03:10:01;99729.56;;;5.48;100.00
51359;BME280;37448;51.588;7.248;2024-01-06T03:12:03;99742.41;;;5.54;100.00
51359;BME280;37448;51.588;7.248;2024-01-06T03:14:03;99734.69;;;5.51;100.00
51359;BME280;37448;51.588;7.248;2024-01-06T03:16:04;99744.16;;;5.52;100.00
51359;BME280;37448;51.588;7.248;2024-01-06T03:18:05;99747.66;;;5.48;100.00
51359;BME280;37448;51.588;7.248;2024-01-06T03:20:06;99738.13;;;5.53;100.00
51359;BME280;37448;51.588;7.248;2024-01-06T03:22:07;99748.50;;;5.49;100.00
51359;BME280;37448;51.588;7.248;2024-01-06T03:24:07;99755.41;;;5.48;100.00
51359;BME280;37448;51.588;7.248;2024-01-06T03:26:09;99748.53;;;5.47;100.00
51359;BME280;37448;51.588;7.248;2024-01-06T03:28:09;99745.94;;;5.47;100.00
51359;BME280;37448;51.588;7.248;2024-01-06T03:30:10;99745.13;;;5.43;100.00
51359;BME280;37448;51.588;7.248;2024-01-06T03:32:11;99753.78;;;5.38;100.00
51359;BME280;37448;51.588;7.248;2024-01-06T03:34:11;99746.91;;;5.37;100.00
51359;BME280;37448;51.588;7.248;2024-01-06T03:36:12;99746.03;;;5.38;100.00
51359;BME280;37448;51.588;7.248;2024-01-06T03:38:13;99753.81;;;5.35;100.00
51359;BME280;37448;51.588;7.248;2024-01-06T03:40:13;99756.50;;;5.25;100.00
51359;BME280;37448;51.588;7.248;2024-01-06T03:42:14;99753.06;;;5.20;100.00
51359;BME280;37448;51.588;7.248;2024-01-06T03:44:14;99759.13;;;5.22;100.00
51359;BME280;37448;51.588;7.248;2024-01-06T03:46:15;99763.41;;;5.22;100.00
51359;BME280;37448;51.588;7.248;2024-01-06T03:48:15;99772.88;;;5.21;100.00
51359;BME280;37448;51.588;7.248;2024-01-06T03:50:15;99768.56;;;5.25;100.00
51359;BME280;37448;51.588;7.248;2024-01-06T03:52:16;99780.63;;;5.23;100.00
51359;BME280;37448;51.588;7.248;2024-01-06T03:54:16;99777.22;;;5.22;100.00
51359;BME280;37448;51.588;7.248;2024-01-06T03:56:16;99784.09;;;5.22;100.00
51359;BME280;37448;51.588;7.248;2024-01-06T03:58:18;99786.69;;;5.22;100.00
51359;BME280;37448;51.588;7.248;2024-01-06T04:00:18;99786.69;;;5.23;100.00
51359;BME280;37448;51.588;7.248;2024-01-06T04:02:19;99795.31;;;5.22;100.00
51359;BME280;37448;51.588;7.248;2024-01-06T04:04:19;99794.44;;;5.20;100.00
51359;BME280;37448;51.588;7.248;2024-01-06T04:06:20;99792.75;;;5.16;100.00
51359;BME280;37448;51.588;7.248;2024-01-06T04:08:20;99799.66;;;5.15;100.00
51359;BME280;37448;51.588;7.248;2024-01-06T04:10:21;99794.50;;;5.14;100.00
51359;BME280;37448;51.588;7.248;2024-01-06T04:12:21;99803.97;;;5.12;100.00
51359;BME280;37448;51.588;7.248;2024-01-06T04:14:21;99797.09;;;5.12;100.00
51359;BME280;37448;51.588;7.248;2024-01-06T04:16:23;99801.41;;;5.12;100.00
51359;BME280;37448;51.588;7.248;2024-01-06T04:18:25;99803.16;;;5.11;100.00
51359;BME280;37448;51.588;7.248;2024-01-06T04:20:26;99801.41;;;5.12;100.00
51359;BME280;37448;51.588;7.248;2024-01-06T04:22:26;99805.72;;;5.10;100.00
51359;BME280;37448;51.588;7.248;2024-01-06T04:24:26;99809.19;;;5.09;100.00
51359;BME280;37448;51.588;7.248;2024-01-06T04:26:27;99794.53;;;5.11;100.00
51359;BME280;37448;51.588;7.248;2024-01-06T04:28:27;99810.94;;;5.07;100.00
51359;BME280;37448;51.588;7.248;2024-01-06T04:30:28;99810.91;;;5.10;100.00
51359;BME280;37448;51.588;7.248;2024-01-06T04:32:28;99808.31;;;5.10;100.00
51359;BME280;37448;51.588;7.248;2024-01-06T04:34:28;99805.72;;;5.10;100.00
51359;BME280;37448;51.588;7.248;2024-01-06T04:36:29;99821.25;;;5.07;100.00
51359;BME280;37448;51.588;7.248;2024-01-06T04:38:29;99812.69;;;5.01;100.00
51359;BME280;37448;51.588;7.248;2024-01-06T04:40:29;99822.97;;;5.06;100.00
51359;BME280;37448;51.588;7.248;2024-01-06T04:42:30;99823.84;;;5.07;100.00
51359;BME280;37448;51.588;7.248;2024-01-06T04:44:30;99816.16;;;5.00;100.00
51359;BME280;37448;51.588;7.248;2024-01-06T04:46:31;99826.47;;;5.04;100.00
51359;BME280;37448;51.588;7.248;2024-01-06T04:48:31;99815.28;;;5.00;100.00
51359;BME280;37448;51.588;7.248;2024-01-06T04:50:32;99824.75;;;5.02;100.00
51359;BME280;37448;51.588;7.248;2024-01-06T04:52:32;99826.44;;;5.05;100.00
51359;BME280;37448;51.588;7.248;2024-01-06T04:54:32;99819.56;;;5.02;100.00
51359;BME280;37448;51.588;7.248;2024-01-06T04:56:33;99828.19;;;5.01;100.00
51359;BME280;37448;51.588;7.248;2024-01-06T04:58:33;99824.78;;;4.99;100.00
51359;BME280;37448;51.588;7.248;2024-01-06T05:00:35;99832.50;;;5.02;100.00
51359;BME280;37448;51.588;7.248;2024-01-06T05:02:36;99838.56;;;4.97;100.00
51359;BME280;37448;51.588;7.248;2024-01-06T05:04:36;99836.00;;;4.94;100.00
51359;BME280;37448;51.588;7.248;2024-01-06T05:06:37;99836.88;;;4.88;100.00
51359;BME280;37448;51.588;7.248;2024-01-06T05:08:37;99837.72;;;4.90;100.00
51359;BME280;37448;51.588;7.248;2024-01-06T05:10:41;99836.88;;;4.91;100.00
51359;BME280;37448;51.588;7.248;2024-01-06T05:12:42;99839.44;;;4.91;100.00
51359;BME280;37448;51.588;7.248;2024-01-06T05:14:42;99836.88;;;4.88;100.00
51359;BME280;37448;51.588;7.248;2024-01-06T05:16:42;99848.97;;;4.87;100.00
51359;BME280;37448;51.588;7.248;2024-01-06T05:18:43;99848.94;;;4.91;100.00
51359;BME280;37448;51.588;7.248;2024-01-06T05:20:43;99846.31;;;4.92;100.00
51359;BME280;37448;51.588;7.248;2024-01-06T05:22:43;99847.28;;;4.80;100.00
51359;BME280;37448;51.588;7.248;2024-01-06T05:24:44;99847.28;;;4.82;100.00
51359;BME280;37448;51.588;7.248;2024-01-06T05:26:44;99850.69;;;4.84;100.00
51359;BME280;37448;51.588;7.248;2024-01-06T05:28:45;99854.13;;;4.86;100.00
51359;BME280;37448;51.588;7.248;2024-01-06T05:30:45;99851.56;;;4.87;100.00
51359;BME280;37448;51.588;7.248;2024-01-06T05:32:46;99849.84;;;4.82;100.00
51359;BME280;37448;51.588;7.248;2024-01-06T05:34:46;99851.56;;;4.83;100.00
51359;BME280;37448;51.588;7.248;2024-01-06T05:36:47;99852.44;;;4.82;100.00
51359;BME280;37448;51.588;7.248;2024-01-06T05:38:47;99856.78;;;4.73;100.00
51359;BME280;37448;51.588;7.248;2024-01-06T05:40:47;99857.63;;;4.72;100.00
51359;BME280;37448;51.588;7.248;2024-01-06T05:42:48;99854.22;;;4.70;100.00
51359;BME280;37448;51.588;7.248;2024-01-06T05:44:48;99852.50;;;4.66;100.00
51359;BME280;37448;51.588;7.248;2024-01-06T05:46:48;99864.59;;;4.64;100.00
51359;BME280;37448;51.588;7.248;2024-01-06T05:48:49;99866.28;;;4.65;100.00
51359;BME280;37448;51.588;7.248;2024-01-06T05:50:49;99875.78;;;4.65;100.00
51359;BME280;37448;51.588;7.248;2024-01-06T05:52:50;99872.31;;;4.64;100.00
51359;BME280;37448;51.588;7.248;2024-01-06T05:54:52;99874.06;;;4.62;100.00
51359;BME280;37448;51.588;7.248;2024-01-06T05:56:52;99874.91;;;4.66;100.00
51359;BME280;37448;51.588;7.248;2024-01-06T05:58:53;99882.63;;;4.67;100.00
51359;BME280;37448;51.588;7.248;2024-01-06T06:00:53;99884.38;;;4.65;100.00
51359;BME280;37448;51.588;7.248;2024-01-06T06:02:56;99875.81;;;4.57;100.00
51359;BME280;37448;51.588;7.248;2024-01-06T06:04:57;99894.72;;;4.64;100.00
51359;BME280;37448;51.588;7.248;2024-01-06T06:06:57;99885.28;;;4.55;100.00
51359;BME280;37448;51.588;7.248;2024-01-06T06:08:58;99892.19;;;4.53;100.00
51359;BME280;37448;51.588;7.248;2024-01-06T06:11:00;99899.94;;;4.53;100.00
51359;BME280;37448;51.588;7.248;2024-01-06T06:13:01;99902.53;;;4.53;100.00
51359;BME280;37448;51.588;7.248;2024-01-06T06:15:03;99901.66;;;4.49;100.00
51359;BME280;37448;51.588;7.248;2024-01-06T06:17:04;99899.09;;;4.44;100.00
51359;BME280;37448;51.588;7.248;2024-01-06T06:19:04;99905.97;;;4.52;100.00
51359;BME280;37448;51.588;7.248;2024-01-06T06:21:06;99911.13;;;4.52;100.00
51359;BME280;37448;51.588;7.248;2024-01-06T06:23:07;99909.41;;;4.51;100.00
51359;BME280;37448;51.588;7.248;2024-01-06T06:25:08;99930.91;;;4.51;100.00
51359;BME280;37448;51.588;7.248;2024-01-06T06:27:08;99930.06;;;4.54;100.00
51359;BME280;37448;51.588;7.248;2024-01-06T06:29:09;99936.94;;;4.55;100.00
51359;BME280;37448;51.588;7.248;2024-01-06T06:31:09;99942.09;;;4.49;100.00
51359;BME280;37448;51.588;7.248;2024-01-06T06:33:09;99936.09;;;4.50;100.00
51359;BME280;37448;51.588;7.248;2024-01-06T06:35:10;99934.38;;;4.45;100.00
51359;BME280;37448;51.588;7.248;2024-01-06T06:37:10;99932.63;;;4.52;100.00
51359;BME280;37448;51.588;7.248;2024-01-06T06:39:10;99942.97;;;4.49;100.00
51359;BME280;37448;51.588;7.248;2024-01-06T06:41:11;99944.69;;;4.49;100.00
51359;BME280;37448;51.588;7.248;2024-01-06T06:43:11;99955.03;;;4.39;100.00
51359;BME280;37448;51.588;7.248;2024-01-06T06:45:12;99962.81;;;4.36;100.00
51359;BME280;37448;51.588;7.248;2024-01-06T06:47:12;99958.50;;;4.40;100.00
51359;BME280;37448;51.588;7.248;2024-01-06T06:49:12;99962.81;;;4.41;100.00
51359;BME280;37448;51.588;7.248;2024-01-06T06:51:13;99965.41;;;4.38;100.00
51359;BME280;37448;51.588;7.248;2024-01-06T06:53:13;99967.97;;;4.41;100.00
51359;BME280;37448;51.588;7.248;2024-01-06T06:55:14;99973.97;;;4.38;100.00
51359;BME280;37448;51.588;7.248;2024-01-06T06:57:15;99967.09;;;4.40;100.00
51359;BME280;37448;51.588;7.248;2024-01-06T06:59:15;99980.03;;;4.39;100.00
51359;BME280;37448;51.588;7.248;2024-01-06T07:01:16;99984.28;;;4.37;100.00
51359;BME280;37448;51.588;7.248;2024-01-06T07:03:16;99983.44;;;4.36;100.00
51359;BME280;37448;51.588;7.248;2024-01-06T07:05:16;99992.06;;;4.35;100.00
51359;BME280;37448;51.588;7.248;2024-01-06T07:07:18;99992.91;;;4.36;100.00
51359;BME280;37448;51.588;7.248;2024-01-06T07:09:18;99995.50;;;4.37;100.00
51359;BME280;37448;51.588;7.248;2024-01-06T07:11:19;99999.78;;;4.38;100.00
51359;BME280;37448;51.588;7.248;2024-01-06T07:13:19;100011.84;;;4.33;100.00
51359;BME280;37448;51.588;7.248;2024-01-06T07:15:20;100011.88;;;4.30;100.00
51359;BME280;37448;51.588;7.248;2024-01-06T07:17:20;100016.19;;;4.28;100.00
51359;BME280;37448;51.588;7.248;2024-01-06T07:19:21;100024.78;;;4.27;100.00
51359;BME280;37448;51.588;7.248;2024-01-06T07:21:21;100035.09;;;4.21;100.00
51359;BME280;37448;51.588;7.248;2024-01-06T07:23:23;100034.25;;;4.17;100.00
51359;BME280;37448;51.588;7.248;2024-01-06T07:25:23;100031.66;;;4.12;100.00
51359;BME280;37448;51.588;7.248;2024-01-06T07:27:25;100042.00;;;4.06;100.00
51359;BME280;37448;51.588;7.248;2024-01-06T07:29:25;100045.44;;;4.11;100.00
51359;BME280;37448;51.588;7.248;2024-01-06T07:31:26;100045.44;;;4.11;100.00
51359;BME280;37448;51.588;7.248;2024-01-06T07:33:26;100048.84;;;4.09;100.00
51359;BME280;37448;51.588;7.248;2024-01-06T07:35:26;100051.44;;;3.99;100.00
51359;BME280;37448;51.588;7.248;2024-01-06T07:37:28;100048.00;;;4.00;100.00
51359;BME280;37448;51.588;7.248;2024-01-06T07:39:28;100045.41;;;3.96;100.00
51359;BME280;37448;51.588;7.248;2024-01-06T07:41:29;100057.44;;;3.91;100.00
51359;BME280;37448;51.588;7.248;2024-01-06T07:43:31;100056.59;;;3.99;100.00
51359;BME280;37448;51.588;7.248;2024-01-06T07:45:31;100062.59;;;3.97;100.00
51359;BME280;37448;51.588;7.248;2024-01-06T07:47:32;100068.66;;;3.94;100.00
51359;BME280;37448;51.588;7.248;2024-01-06T07:49:32;100071.22;;;3.96;100.00
51359;BME280;37448;51.588;7.248;2024-01-06T07:51:33;100078.97;;;3.94;100.00
51359;BME280;37448;51.588;7.248;2024-01-06T07:53:35;100071.22;;;3.96;100.00
51359;BME280;37448;51.588;7.248;2024-01-06T07:55:35;100077.22;;;3.92;100.00
51359;BME280;37448;51.588;7.248;2024-01-06T07:57:35;100084.13;;;3.94;100.00
51359;BME280;37448;51.588;7.248;2024-01-06T07:59:36;100081.53;;;3.90;100.00
51359;BME280;37448;51.588;7.248;2024-01-06T08:01:36;100092.72;;;3.92;100.00
51359;BME280;37448;51.588;7.248;2024-01-06T08:03:36;100098.72;;;3.91;100.00
51359;BME280;37448;51.588;7.248;2024-01-06T08:05:37;100101.31;;;3.94;100.00
51359;BME280;37448;51.588;7.248;2024-01-06T08:07:39;100099.59;;;3.90;100.00
51359;BME280;37448;51.588;7.248;2024-01-06T08:09:39;100105.59;;;3.95;100.00
51359;BME280;37448;51.588;7.248;2024-01-06T08:11:40;100103.03;;;3.93;100.00
51359;BME280;37448;51.588;7.248;2024-01-06T08:13:40;100107.28;;;3.77;100.00
51359;BME280;37448;51.588;7.248;2024-01-06T08:15:41;100115.91;;;3.89;100.00
51359;BME280;37448;51.588;7.248;2024-01-06T08:17:41;100124.53;;;3.87;100.00
51359;BME280;37448;51.588;7.248;2024-01-06T08:19:43;100133.09;;;3.79;100.00
51359;BME280;37448;51.588;7.248;2024-01-06T08:21:43;100124.50;;;3.81;100.00
51359;BME280;37448;51.588;7.248;2024-01-06T08:23:43;100136.53;;;3.79;100.00
51359;BME280;37448;51.588;7.248;2024-01-06T08:25:44;100133.94;;;3.78;100.00
51359;BME280;37448;51.588;7.248;2024-01-06T08:27:46;100126.19;;;3.68;100.00
51359;BME280;37448;51.588;7.248;2024-01-06T08:29:46;100139.13;;;3.79;100.00
51359;BME280;37448;51.588;7.248;2024-01-06T08:31:46;100137.41;;;3.81;100.00
51359;BME280;37448;51.588;7.248;2024-01-06T08:33:47;100143.44;;;3.80;100.00
51359;BME280;37448;51.588;7.248;2024-01-06T08:35:48;100147.72;;;3.80;100.00
51359;BME280;37448;51.588;7.248;2024-01-06T08:37:48;100146.88;;;3.79;100.00
51359;BME280;37448;51.588;7.248;2024-01-06T08:39:48;100150.31;;;3.81;100.00
51359;BME280;37448;51.588;7.248;2024-01-06T08:41:49;100163.19;;;3.83;100.00
51359;BME280;37448;51.588;7.248;2024-01-06T08:43:50;100158.03;;;3.83;100.00
51359;BME280;37448;51.588;7.248;2024-01-06T08:45:50;100166.63;;;3.80;100.00
51359;BME280;37448;51.588;7.248;2024-01-06T08:47:51;100176.06;;;3.75;100.00
51359;BME280;37448;51.588;7.248;2024-01-06T08:49:51;100171.78;;;3.76;100.00
51359;BME280;37448;51.588;7.248;2024-01-06T08:51:52;100176.06;;;3.77;100.00
51359;BME280;37448;51.588;7.248;2024-01-06T08:53:52;100182.09;;;3.79;100.00
51359;BME280;37448;51.588;7.248;2024-01-06T08:55:53;100182.09;;;3.79;100.00
51359;BME280;37448;51.588;7.248;2024-01-06T08:57:54;100185.53;;;3.78;100.00
51359;BME280;37448;51.588;7.248;2024-01-06T08:59:54;100190.69;;;3.78;100.00
51359;BME280;37448;51.588;7.248;2024-01-06T09:01:54;100188.09;;;3.76;100.00
51359;BME280;37448;51.588;7.248;2024-01-06T09:03:56;100201.88;;;3.78;100.00
51359;BME280;37448;51.588;7.248;2024-01-06T09:05:56;100195.84;;;3.75;100.00
51359;BME280;37448;51.588;7.248;2024-01-06T09:07:59;100213.03;;;3.79;100.00
51359;BME280;37448;51.588;7.248;2024-01-06T09:10:00;100210.47;;;3.80;100.00
51359;BME280;37448;51.588;7.248;2024-01-06T09:12:00;100207.03;;;3.81;100.00
51359;BME280;37448;51.588;7.248;2024-01-06T09:14:00;100213.88;;;3.70;100.00
51359;BME280;37448;51.588;7.248;2024-01-06T09:16:01;100221.56;;;3.61;100.00
51359;BME280;37448;51.588;7.248;2024-01-06T09:18:01;100221.66;;;3.79;100.00
51359;BME280;37448;51.588;7.248;2024-01-06T09:20:03;100222.53;;;3.81;100.00
51359;BME280;37448;51.588;7.248;2024-01-06T09:22:03;100220.75;;;3.74;100.00
51359;BME280;37448;51.588;7.248;2024-01-06T09:24:04;100228.53;;;3.82;100.00
51359;BME280;37448;51.588;7.248;2024-01-06T09:26:06;100226.81;;;3.81;100.00
51359;BME280;37448;51.588;7.248;2024-01-06T09:28:07;100233.69;;;3.83;100.00
51359;BME280;37448;51.588;7.248;2024-01-06T09:30:07;100231.06;;;3.77;100.00
51359;BME280;37448;51.588;7.248;2024-01-06T09:32:08;100238.78;;;3.71;100.00
51359;BME280;37448;51.588;7.248;2024-01-06T09:34:09;100235.38;;;3.75;100.00
51359;BME280;37448;51.588;7.248;2024-01-06T09:36:10;100245.69;;;3.67;100.00
51359;BME280;37448;51.588;7.248;2024-01-06T09:38:12;100243.97;;;3.74;100.00
51359;BME280;37448;51.588;7.248;2024-01-06T09:40:13;100243.97;;;3.72;100.00
51359;BME280;37448;51.588;7.248;2024-01-06T09:42:14;100244.81;;;3.70;100.00
51359;BME280;37448;51.588;7.248;2024-01-06T09:44:14;100249.97;;;3.67;100.00
51359;BME280;37448;51.588;7.248;2024-01-06T09:46:24;100256.88;;;3.76;100.00
51359;BME280;37448;51.588;7.248;2024-01-06T09:48:29;100256.84;;;3.74;100.00
51359;BME280;37448;51.588;7.248;2024-01-06T09:50:33;100263.78;;;3.81;100.00
51359;BME280;37448;51.588;7.248;2024-01-06T09:52:39;100265.50;;;3.79;100.00
51359;BME280;37448;51.588;7.248;2024-01-06T09:54:41;100264.63;;;3.76;100.00
51359;BME280;37448;51.588;7.248;2024-01-06T09:56:46;100273.22;;;3.81;100.00
51359;BME280;37448;51.588;7.248;2024-01-06T09:58:48;100268.88;;;3.72;100.00
51359;BME280;37448;51.588;7.248;2024-01-06T10:00:48;100263.78;;;3.78;100.00
51359;BME280;37448;51.588;7.248;2024-01-06T10:02:50;100277.53;;;3.80;100.00
51359;BME280;37448;51.588;7.248;2024-01-06T10:04:51;100276.66;;;3.77;100.00
51359;BME280;37448;51.588;7.248;2024-01-06T10:06:51;100284.34;;;3.72;100.00
51359;BME280;37448;51.588;7.248;2024-01-06T10:08:52;100287.84;;;3.79;100.00
51359;BME280;37448;51.588;7.248;2024-01-06T10:10:53;100292.97;;;3.77;100.00
51359;BME280;37448;51.588;7.248;2024-01-06T10:12:53;100289.50;;;3.72;100.00
51359;BME280;37448;51.588;7.248;2024-01-06T10:14:55;100300.69;;;3.71;100.00
51359;BME280;37448;51.588;7.248;2024-01-06T10:16:56;100296.34;;;3.61;100.00
51359;BME280;37448;51.588;7.248;2024-01-06T10:18:57;100298.03;;;3.55;100.00
51359;BME280;37448;51.588;7.248;2024-01-06T10:20:58;100305.84;;;3.66;100.00
51359;BME280;37448;51.588;7.248;2024-01-06T10:23:04;100303.22;;;3.62;100.00
51359;BME280;37448;51.588;7.248;2024-01-06T10:25:06;100310.13;;;3.67;100.00
51359;BME280;37448;51.588;7.248;2024-01-06T10:27:07;100312.72;;;3.67;100.00
51359;BME280;37448;51.588;7.248;2024-01-06T10:29:09;100311.78;;;3.59;100.00
51359;BME280;37448;51.588;7.248;2024-01-06T10:31:09;100309.22;;;3.54;100.00
51359;BME280;37448;51.588;7.248;2024-01-06T10:33:10;100318.66;;;3.55;100.00
51359;BME280;37448;51.588;7.248;2024-01-06T10:35:10;100320.38;;;3.58;100.00
51359;BME280;37448;51.588;7.248;2024-01-06T10:37:11;100316.88;;;3.51;100.00